Time;durP1;ratioP1;P1;durP2;ratioP2;P2;SDS_P1;SDS_P2;PMS_P1;PMS_P2;Temp;Humidity;BMP_temperature;BMP_pressure;BME280_temperature;BME280_humidity;BME280_pressure;Samples;Min_cycle;Max_cycle;Signal;HPM_P1;HPM_P2
2023/11/26 00:00:07;;;;;;;;;;;;;;;21.38;27.36;94414.03;5021191;28;1609;-74
2023/11/26 00:02:33;;;;;;;;;;;;;;;21.32;27.74;94420.50;5019353;28;1585;-74
2023/11/26 00:04:58;;;;;;;;;;;;;;;21.39;27.81;94426.88;5019311;28;1598;-74
2023/11/26 00:07:24;;;;;;;;;;;;;;;21.57;27.32;94412.03;4999756;28;1898;-75
2023/11/26 00:09:49;;;;;;;;;;;;;;;21.33;27.58;94416.38;5014642;28;1562;-74
2023/11/26 00:12:15;;;;;;;;;;;;;;;21.58;27.42;94407.91;5019865;28;1421;-74
2023/11/26 00:14:41;;;;;;;;;;;;;;;21.41;27.16;94393.19;5019498;28;1408;-74
2023/11/26 00:17:06;;;;;;;;;;;;;;;21.46;26.81;94412.16;5003058;28;1397;-74
2023/11/26 00:19:34;;;;;;;;;;;;;;;21.45;26.73;94411.38;5019495;28;1538;-74
2023/11/26 00:22:00;;;;;;;;;;;;;;;20.93;28.09;94397.44;4988251;28;1495;-75
2023/11/26 00:24:25;;;;;;;;;;;;;;;21.37;27.28;94401.19;4992615;28;1417;-74
2023/11/26 00:26:51;;;;;;;;;;;;;;;21.38;27.20;94392.16;5019414;28;1623;-74
2023/11/26 00:29:16;;;;;;;;;;;;;;;21.62;26.95;94379.31;5019108;28;1975;-74
2023/11/26 00:31:42;;;;;;;;;;;;;;;21.53;26.59;94377.59;5019300;28;1425;-74
2023/11/26 00:34:08;;;;;;;;;;;;;;;21.71;26.30;94379.72;5020020;28;1580;-74
2023/11/26 00:36:33;;;;;;;;;;;;;;;21.68;26.58;94380.78;5004279;28;1465;-74
2023/11/26 00:38:59;;;;;;;;;;;;;;;21.37;26.52;94367.25;4988397;28;1540;-75
2023/11/26 00:41:25;;;;;;;;;;;;;;;21.15;26.76;94391.59;5036900;28;1587;-74
2023/11/26 00:43:50;;;;;;;;;;;;;;;21.31;26.53;94376.56;5036748;28;1504;-74
2023/11/26 00:46:16;;;;;;;;;;;;;;;21.35;26.61;94364.97;5003996;28;1364;-74
2023/11/26 00:48:41;;;;;;;;;;;;;;;21.85;27.08;94372.81;5003993;28;1926;-75
2023/11/26 00:51:07;;;;;;;;;;;;;;;22.19;26.65;94372.41;5037374;28;1630;-74
2023/11/26 00:53:32;;;;;;;;;;;;;;;21.82;27.16;94361.84;4992543;28;1588;-74
2023/11/26 00:55:59;;;;;;;;;;;;;;;21.98;26.84;94368.56;5001646;28;1516;-75
2023/11/26 00:58:25;;;;;;;;;;;;;;;22.00;26.57;94344.06;5017384;28;1506;-74
2023/11/26 01:00:51;;;;;;;;;;;;;;;22.28;26.22;94365.63;5000855;28;1402;-74
2023/11/26 01:03:18;;;;;;;;;;;;;;;21.91;26.50;94363.50;5017315;28;1369;-75
2023/11/26 01:05:44;;;;;;;;;;;;;;;21.73;26.68;94340.31;4995773;28;1623;-75
2023/11/26 01:08:10;;;;;;;;;;;;;;;22.12;26.13;94327.72;4980143;28;1989;-74
2023/11/26 01:10:36;;;;;;;;;;;;;;;22.09;26.05;94323.88;4969829;28;1514;-74
2023/11/26 01:13:01;;;;;;;;;;;;;;;21.85;25.92;94319.06;4979998;28;1376;-74
2023/11/26 01:15:27;;;;;;;;;;;;;;;21.93;25.94;94327.72;4995615;28;1450;-74
2023/11/26 01:17:52;;;;;;;;;;;;;;;21.78;26.05;94316.84;4963615;28;1359;-75
2023/11/26 01:20:18;;;;;;;;;;;;;;;21.43;26.04;94319.88;4936461;29;1463;-74
2023/11/26 01:22:43;;;;;;;;;;;;;;;21.30;26.35;94312.81;4941585;29;1428;-75
2023/11/26 01:25:09;;;;;;;;;;;;;;;21.13;26.99;94315.03;4957001;28;1509;-74
2023/11/26 01:27:35;;;;;;;;;;;;;;;21.58;27.27;94311.72;4940986;28;1907;-75
2023/11/26 01:30:00;;;;;;;;;;;;;;;21.58;27.34;94301.16;4941506;28;1561;-74
2023/11/26 01:32:26;;;;;;;;;;;;;;;21.68;27.38;94301.56;4940990;29;1429;-74
2023/11/26 01:34:51;;;;;;;;;;;;;;;21.61;27.39;94302.16;4941539;28;1495;-75
2023/11/26 01:37:17;;;;;;;;;;;;;;;21.52;27.12;94294.06;4939117;28;1453;-74
2023/11/26 01:39:43;;;;;;;;;;;;;;;21.67;26.92;94254.75;4937231;29;1360;-74
2023/11/26 01:42:08;;;;;;;;;;;;;;;21.66;26.96;94281.53;4921999;29;1447;-74
2023/11/26 01:44:34;;;;;;;;;;;;;;;21.25;27.27;94288.19;4921671;29;1514;-74
2023/11/26 01:47:05;;;;;;;;;;;;;;;21.35;26.92;94262.38;4935579;29;1499;-74
2023/11/26 01:49:31;;;;;;;;;;;;;;;21.35;26.72;94285.00;4940220;29;1970;-74
2023/11/26 01:52:00;;;;;;;;;;;;;;;21.50;27.27;94271.19;5148595;23;3920;-76
2023/11/26 01:54:29;;;;;;;;;;;;;;;22.12;26.52;94282.41;5057108;28;1395;-76
2023/11/26 01:56:56;;;;;;;;;;;;;;;21.75;26.76;94303.75;5198150;22;3671;-76
2023/11/26 01:59:22;;;;;;;;;;;;;;;22.63;25.77;94263.31;5008006;28;1311;-76
2023/11/26 02:01:49;;;;;;;;;;;;;;;22.09;25.86;94291.97;5014712;28;1626;-76
2023/11/26 02:04:14;;;;;;;;;;;;;;;21.70;25.92;94304.59;5011460;28;1518;-76
2023/11/26 02:06:40;;;;;;;;;;;;;;;21.18;26.88;94277.47;5029519;28;1552;-77
2023/11/26 02:09:06;;;;;;;;;;;;;;;21.13;26.71;94281.09;5025438;28;1963;-77
2023/11/26 02:11:32;;;;;;;;;;;;;;;20.79;27.43;94292.03;5035476;28;1436;-76
2023/11/26 02:13:58;;;;;;;;;;;;;;;21.67;26.94;94300.03;5159618;22;3765;-76
2023/11/26 02:16:24;;;;;;;;;;;;;;;22.38;25.51;94309.31;5055904;28;1506;-76
2023/11/26 02:18:49;;;;;;;;;;;;;;;21.78;26.04;94310.44;5056109;28;1439;-76
2023/11/26 02:21:16;;;;;;;;;;;;;;;21.25;26.10;94259.91;5056389;28;1440;-77
2023/11/26 02:23:41;;;;;;;;;;;;;;;21.44;26.76;94146.06;5056334;28;1577;-76
2023/11/26 02:26:09;;;;;;;;;;;;;;;21.82;26.40;94064.72;5039325;28;1409;-76
2023/11/26 02:28:35;;;;;;;;;;;;;;;22.38;25.16;94003.44;5056239;28;1971;-77
2023/11/26 02:31:00;;;;;;;;;;;;;;;21.80;25.55;93861.50;5073231;28;1462;-76
2023/11/26 02:33:26;;;;;;;;;;;;;;;21.43;25.53;93841.94;5039885;28;1593;-76
2023/11/26 02:35:51;;;;;;;;;;;;;;;20.84;27.12;93920.31;5055972;28;1406;-76
2023/11/26 02:38:17;;;;;;;;;;;;;;;21.68;26.51;94007.31;5072385;28;1441;-76
2023/11/26 02:40:42;;;;;;;;;;;;;;;22.53;24.99;94043.28;5056201;28;1443;-76
2023/11/26 02:43:09;;;;;;;;;;;;;;;21.79;25.35;94069.38;5039333;28;1469;-76
2023/11/26 02:45:35;;;;;;;;;;;;;;;21.58;25.31;94034.50;5072301;28;1347;-76
2023/11/26 02:48:00;;;;;;;;;;;;;;;21.15;25.77;94041.09;5072341;28;1910;-76
2023/11/26 02:50:26;;;;;;;;;;;;;;;21.12;26.26;94049.88;5070843;28;1438;-76
2023/11/26 02:52:52;;;;;;;;;;;;;;;21.94;25.73;94062.44;5055577;28;1442;-76
2023/11/26 02:55:18;;;;;;;;;;;;;;;22.30;25.01;94060.75;5195416;22;3501;-77
2023/11/26 02:57:50;;;;;;;;;;;;;;;22.82;24.28;94053.50;5301291;22;3511;31
2023/11/26 03:00:15;;;;;;;;;;;;;;;22.78;24.42;94077.81;4997149;28;1669;-77
2023/11/26 03:02:42;;;;;;;;;;;;;;;22.61;24.13;94106.50;4979953;28;1451;-76
2023/11/26 03:05:17;;;;;;;;;;;;;;;21.83;24.94;94149.06;4993258;28;1702;-76
2023/11/26 03:07:44;;;;;;;;;;;;;;;21.53;25.32;94169.06;4971855;28;1981;-76
2023/11/26 03:13:12;;;;;;;;;;;;;;;21.53;25.13;94239.00;5000787;28;1396;-76
2023/11/26 03:15:40;;;;;;;;;;;;;;;21.51;25.84;94230.31;5016662;28;1501;-76
2023/11/26 03:18:08;;;;;;;;;;;;;;;22.35;24.93;94170.31;4975613;28;1477;-77
2023/11/26 03:20:37;;;;;;;;;;;;;;;22.20;24.57;94155.91;4996263;28;1382;-76
2023/11/26 03:23:05;;;;;;;;;;;;;;;22.31;24.05;94189.69;4980064;28;1634;-76
2023/11/26 03:25:31;;;;;;;;;;;;;;;22.11;24.33;94314.88;4976199;28;1662;-77
2023/11/26 03:27:58;;;;;;;;;;;;;;;21.90;24.74;94271.41;4995312;28;1973;-76
2023/11/26 03:30:26;;;;;;;;;;;;;;;22.13;23.89;94283.97;4948610;28;1400;-76
2023/11/26 03:32:55;;;;;;;;;;;;;;;22.03;24.09;94314.72;4900994;29;1519;-77
2023/11/26 03:35:20;;;;;;;;;;;;;;;22.04;24.32;94281.50;4900126;29;1590;-76
2023/11/26 03:37:46;;;;;;;;;;;;;;;22.20;23.88;94283.34;4897489;29;1543;-76
2023/11/26 03:40:12;;;;;;;;;;;;;;;22.10;23.79;94325.44;4876885;29;1532;-77
2023/11/26 03:42:39;;;;;;;;;;;;;;;22.05;24.07;94266.03;4865159;29;1547;-76
2023/11/26 03:45:05;;;;;;;;;;;;;;;22.04;24.02;94270.19;4866375;29;1607;-76
2023/11/26 03:47:30;;;;;;;;;;;;;;;22.26;23.79;94238.69;4880639;29;1978;-76
2023/11/26 03:49:56;;;;;;;;;;;;;;;22.10;23.70;94253.88;4881237;29;1440;-76
2023/11/26 03:52:21;;;;;;;;;;;;;;;22.35;23.43;94323.25;4866929;29;1480;-76
2023/11/26 03:54:47;;;;;;;;;;;;;;;22.36;23.33;94310.63;4882530;29;1471;-76
2023/11/26 03:57:13;;;;;;;;;;;;;;;22.31;23.55;94317.13;4881671;29;1534;-76
2023/11/26 03:59:41;;;;;;;;;;;;;;;22.08;23.46;94321.59;4866877;29;1402;-76
2023/11/26 04:02:07;;;;;;;;;;;;;;;22.29;23.20;94319.75;4850956;29;1398;-76
2023/11/26 04:04:34;;;;;;;;;;;;;;;22.29;23.18;94336.75;4899320;29;1601;-76
2023/11/26 04:07:00;;;;;;;;;;;;;;;22.10;23.38;94355.78;4939604;28;1423;-76
2023/11/26 04:09:26;;;;;;;;;;;;;;;22.03;23.74;94398.88;4996392;28;1910;-76
2023/11/26 04:11:56;;;;;;;;;;;;;;;22.10;23.26;94427.34;4981579;28;1579;-76
2023/11/26 04:14:22;;;;;;;;;;;;;;;22.04;23.61;94440.03;4971580;28;1530;-76
2023/11/26 04:16:48;;;;;;;;;;;;;;;22.07;23.53;94444.59;4969214;28;1539;-76
2023/11/26 04:19:15;;;;;;;;;;;;;;;22.35;22.94;94459.22;4977409;28;1354;-76
2023/11/26 04:21:44;;;;;;;;;;;;;;;22.24;23.08;94458.59;4961762;28;1506;-76
2023/11/26 04:24:11;;;;;;;;;;;;;;;22.21;23.30;94466.09;4983003;28;1544;-76
2023/11/26 04:26:37;;;;;;;;;;;;;;;22.20;23.49;94486.44;5164883;23;3770;-76
2023/11/26 04:29:02;;;;;;;;;;;;;;;22.95;22.61;94488.53;5036332;28;1910;-76
2023/11/26 04:31:28;;;;;;;;;;;;;;;22.73;22.60;94481.84;5048459;28;1585;-77
2023/11/26 04:33:54;;;;;;;;;;;;;;;22.34;22.96;94493.75;5039643;28;1392;-76
2023/11/26 04:36:20;;;;;;;;;;;;;;;22.27;23.07;94477.34;5038968;28;1486;-76
2023/11/26 04:38:45;;;;;;;;;;;;;;;22.30;22.96;94485.53;5023396;28;1423;-76
2023/11/26 04:41:11;;;;;;;;;;;;;;;22.30;23.09;94502.53;5015401;28;1622;-76
2023/11/26 04:43:36;;;;;;;;;;;;;;;22.49;22.55;94490.47;4999299;28;1507;-76
2023/11/26 04:46:02;;;;;;;;;;;;;;;22.30;22.93;94502.53;5093501;22;3799;-76
2023/11/26 04:48:29;;;;;;;;;;;;;;;22.88;22.26;94504.84;4982419;28;1894;-76
2023/11/26 04:50:56;;;;;;;;;;;;;;;22.67;22.32;94509.53;5117508;22;3656;-74
2023/11/26 04:53:23;;;;;;;;;;;;;;;22.86;22.07;94504.63;5037819;28;1316;-74
2023/11/26 04:55:49;;;;;;;;;;;;;;;22.85;22.16;94516.50;5036823;28;1606;-75
2023/11/26 04:58:14;;;;;;;;;;;;;;;22.39;22.83;94526.13;5019998;28;1549;-75
2023/11/26 05:00:40;;;;;;;;;;;;;;;22.62;22.40;94539.47;5016641;28;1636;-74
2023/11/26 05:03:06;;;;;;;;;;;;;;;22.81;22.18;94527.38;5203551;22;3784;-73
2023/11/26 05:05:31;;;;;;;;;;;;;;;23.05;21.85;94518.81;5057472;28;1455;-74
2023/11/26 05:07:57;;;;;;;;;;;;;;;22.54;22.27;94520.78;5058757;28;1897;-74
2023/11/26 05:13:11;;;;;;;;;;;;;;;22.81;22.19;94521.69;5118063;23;2027;-74
2023/11/26 05:15:37;;;;;;;;;;;;;;;22.75;21.94;94540.84;5040492;28;1424;-74
2023/11/26 05:18:03;;;;;;;;;;;;;;;22.53;22.22;94531.31;5041137;28;1597;-74
2023/11/26 05:20:29;;;;;;;;;;;;;;;22.32;22.52;94562.22;5040835;28;1413;-74
2023/11/26 05:22:56;;;;;;;;;;;;;;;22.32;22.58;94579.22;5040756;28;1407;-74
2023/11/26 05:25:21;;;;;;;;;;;;;;;22.45;22.21;94591.97;5021537;28;1610;-75
2023/11/26 05:27:47;;;;;;;;;;;;;;;22.36;22.37;94568.38;5040219;28;2031;-74
2023/11/26 05:30:13;;;;;;;;;;;;;;;22.32;22.37;94652.88;5019984;28;1717;-75
2023/11/26 05:32:38;;;;;;;;;;;;;;;22.21;22.42;94655.81;5025377;28;1606;-75
2023/11/26 05:35:12;;;;;;;;;;;;;;;22.25;22.26;94653.47;5021362;28;1353;-74
2023/11/26 05:37:41;;;;;;;;;;;;;;;22.28;22.16;94669.41;5022191;28;1482;-76
2023/11/26 05:40:07;;;;;;;;;;;;;;;22.31;21.81;94640.00;5042612;28;1420;-74
2023/11/26 05:42:32;;;;;;;;;;;;;;;22.00;22.42;94671.69;5039722;28;1521;-75
2023/11/26 05:44:58;;;;;;;;;;;;;;;22.12;22.27;94673.13;5040282;28;1416;-74
2023/11/26 05:47:24;;;;;;;;;;;;;;;22.27;21.86;94690.50;5023555;28;1515;-74
2023/11/26 05:49:49;;;;;;;;;;;;;;;22.00;22.57;94694.34;5040461;28;1983;-75
2023/11/26 05:52:14;;;;;;;;;;;;;;;22.20;22.14;94716.59;5039860;28;1505;-74
2023/11/26 05:54:40;;;;;;;;;;;;;;;22.34;21.91;94740.94;5039890;28;1512;-74
2023/11/26 05:57:05;;;;;;;;;;;;;;;21.82;22.62;94736.16;5058355;28;1608;-74
2023/11/26 05:59:31;;;;;;;;;;;;;;;22.15;22.09;94714.56;5023173;28;1569;-75
2023/11/26 06:01:56;;;;;;;;;;;;;;;21.92;22.43;94744.34;5058078;28;1586;-74
2023/11/26 06:04:22;;;;;;;;;;;;;;;21.96;22.17;94744.78;5039804;28;1575;-75
2023/11/26 06:06:47;;;;;;;;;;;;;;;21.82;22.47;94772.94;5039416;28;1641;-74
2023/11/26 06:09:13;;;;;;;;;;;;;;;21.95;22.42;94788.56;5040587;28;1977;-74
2023/11/26 06:11:39;;;;;;;;;;;;;;;21.78;22.48;94792.25;5022693;28;1623;-74
2023/11/26 06:14:05;;;;;;;;;;;;;;;22.06;22.02;94826.03;5039706;28;1490;-74
2023/11/26 06:16:30;;;;;;;;;;;;;;;21.81;22.43;94822.38;5057680;28;1491;-74
2023/11/26 06:18:56;;;;;;;;;;;;;;;21.97;22.32;94817.13;5039347;28;1538;-74
2023/11/26 06:21:21;;;;;;;;;;;;;;;22.03;22.25;94812.97;5039438;28;1385;-74
2023/11/26 06:23:47;;;;;;;;;;;;;;;22.28;21.73;94828.00;5039166;28;1493;-74
2023/11/26 06:26:16;;;;;;;;;;;;;;;21.82;22.16;94804.09;5057043;28;1395;-74
2023/11/26 06:28:42;;;;;;;;;;;;;;;22.02;21.93;94819.13;5047041;28;1897;-75
2023/11/26 06:31:08;;;;;;;;;;;;;;;21.78;22.23;94792.25;5039671;28;1384;-74
2023/11/26 06:33:33;;;;;;;;;;;;;;;22.00;22.03;94793.41;5057033;28;1510;-74
2023/11/26 06:35:59;;;;;;;;;;;;;;;21.87;22.01;94810.25;5057328;28;1485;-74
2023/11/26 06:38:25;;;;;;;;;;;;;;;21.73;22.51;94798.72;5039056;28;1492;-74
2023/11/26 06:40:51;;;;;;;;;;;;;;;21.94;22.37;94813.28;5039413;28;1421;-75
2023/11/26 06:43:16;;;;;;;;;;;;;;;21.71;22.18;94814.69;5037718;28;1548;-74
2023/11/26 06:45:42;;;;;;;;;;;;;;;21.54;22.51;94851.53;5039101;28;1281;-75
2023/11/26 06:48:08;;;;;;;;;;;;;;;21.57;22.61;94873.16;4995148;28;1968;-74
2023/11/26 06:50:36;;;;;;;;;;;;;;;21.64;22.28;94861.28;4979061;28;1395;-74
2023/11/26 06:53:02;;;;;;;;;;;;;;;21.90;22.20;94862.94;4978829;28;1493;-75
2023/11/26 06:55:27;;;;;;;;;;;;;;;21.93;22.09;94847.75;4962372;28;1454;-74
2023/11/26 06:57:53;;;;;;;;;;;;;;;21.52;22.49;94860.56;4978546;28;1616;-75
2023/11/26 07:00:18;;;;;;;;;;;;;;;21.96;22.42;94858.03;4995308;28;2167;-74
2023/11/26 07:02:44;;;;;;;;;;;;;;;21.87;22.18;94881.00;4978906;28;1578;-75
2023/11/26 07:05:09;;;;;;;;;;;;;;;21.60;22.72;94900.38;4995151;28;1243;-74
2023/11/26 07:07:38;;;;;;;;;;;;;;;21.88;22.33;94885.38;4978821;28;1963;-75
2023/11/26 07:10:03;;;;;;;;;;;;;;;21.95;21.99;94890.47;4994960;28;1511;-74
2023/11/26 07:12:29;;;;;;;;;;;;;;;21.76;22.33;94896.75;4978841;28;1498;-74
2023/11/26 07:14:55;;;;;;;;;;;;;;;21.69;22.43;94879.53;4978675;28;1509;-74
2023/11/26 07:17:22;;;;;;;;;;;;;;;21.59;22.47;94887.53;4994849;28;1362;-74
2023/11/26 07:19:47;;;;;;;;;;;;;;;21.54;22.40;94891.16;5043401;28;1451;-74
2023/11/26 07:22:13;;;;;;;;;;;;;;;21.78;22.29;94899.81;5038477;28;1545;-74
2023/11/26 07:24:42;;;;;;;;;;;;;;;21.76;22.30;94902.41;5038461;28;1502;-74
2023/11/26 07:27:07;;;;;;;;;;;;;;;21.82;22.53;94925.00;5021815;28;1519;-74
2023/11/26 07:29:34;;;;;;;;;;;;;;;21.75;22.70;94948.19;5021820;28;1914;-74
2023/11/26 07:31:59;;;;;;;;;;;;;;;21.69;22.67;94948.19;4977388;28;1658;-74
2023/11/26 07:34:26;;;;;;;;;;;;;;;21.92;22.04;94962.28;4978343;28;1517;-75
2023/11/26 07:36:51;;;;;;;;;;;;;;;21.99;22.09;94978.72;4961522;28;1426;-74
2023/11/26 07:42:51;;;;;;;;;;;;;;;21.70;22.46;95028.97;4955083;29;1937;-75
2023/11/26 07:45:17;;;;;;;;;;;;;;;21.72;22.43;95040.56;4955823;29;1466;-74
2023/11/26 07:47:42;;;;;;;;;;;;;;;21.96;22.03;95030.72;4939356;29;1898;-75
2023/11/26 07:50:08;;;;;;;;;;;;;;;21.83;22.38;95063.16;4939444;29;1447;-74
2023/11/26 07:52:34;;;;;;;;;;;;;;;21.78;22.21;95071.69;4955684;28;1556;-74
2023/11/26 07:55:04;;;;;;;;;;;;;;;21.66;22.36;95073.75;4955342;29;1594;-75
2023/11/26 07:57:30;;;;;;;;;;;;;;;21.71;22.23;95095.63;4955715;29;1611;-74
2023/11/26 07:59:57;;;;;;;;;;;;;;;21.87;22.15;95081.97;4936087;29;1544;-75
2023/11/26 08:02:23;;;;;;;;;;;;;;;21.73;22.62;95095.88;4920780;29;1427;-75
2023/11/26 08:04:53;;;;;;;;;;;;;;;22.00;22.20;95121.81;4920963;29;1409;-74
2023/11/26 08:07:23;;;;;;;;;;;;;;;21.80;21.99;95140.63;4924602;29;1499;-75
2023/11/26 08:09:50;;;;;;;;;;;;;;;21.85;22.04;95168.16;4948878;28;1964;-74
2023/11/26 08:12:18;;;;;;;;;;;;;;;21.90;22.06;95182.81;4998185;28;1330;-74
2023/11/26 08:14:44;;;;;;;;;;;;;;;22.08;21.72;95163.25;4998103;28;1526;-75
2023/11/26 08:17:09;;;;;;;;;;;;;;;21.47;22.31;95183.81;4965710;28;1439;-74
2023/11/26 08:19:36;;;;;;;;;;;;;;;21.88;22.10;95191.06;4997854;28;1406;-74
2023/11/26 08:22:01;;;;;;;;;;;;;;;21.75;22.35;95212.13;4997845;28;1346;-74
2023/11/26 08:24:29;;;;;;;;;;;;;;;21.84;22.13;95219.63;4956617;28;1395;-74
2023/11/26 08:26:54;;;;;;;;;;;;;;;21.73;22.07;95223.22;4978172;28;1538;-74
2023/11/26 08:29:20;;;;;;;;;;;;;;;21.74;22.23;95238.91;4962269;28;1911;-74
2023/11/26 08:31:48;;;;;;;;;;;;;;;21.75;22.04;95262.31;5000736;28;1421;-75
2023/11/26 08:34:17;;;;;;;;;;;;;;;21.90;22.06;95267.75;4998286;28;1564;-75
2023/11/26 08:36:42;;;;;;;;;;;;;;;21.91;21.94;95294.75;4999273;28;1456;-74
2023/11/26 08:39:14;;;;;;;;;;;;;;;21.85;22.08;95312.50;5015757;28;1548;-76
2023/11/26 08:41:42;;;;;;;;;;;;;;;21.66;22.27;95300.13;4986607;28;1448;-74
2023/11/26 08:44:09;;;;;;;;;;;;;;;21.62;22.37;95315.81;4993662;28;1556;-75
2023/11/26 08:46:36;;;;;;;;;;;;;;;21.65;22.18;95321.19;4957949;28;1391;-74
2023/11/26 08:49:03;;;;;;;;;;;;;;;21.66;22.05;95334.09;4956984;28;1910;-74
2023/11/26 08:51:32;;;;;;;;;;;;;;;21.94;21.85;95353.19;4952300;28;1552;-75
2023/11/26 08:53:59;;;;;;;;;;;;;;;22.50;21.58;95350.47;4971993;28;1481;-74
2023/11/26 08:56:25;;;;;;;;;;;;;;;22.45;21.45;95356.91;4993032;28;1598;-75
2023/11/26 08:58:51;;;;;;;;;;;;;;;22.19;21.85;95340.94;4958626;28;1462;-74
2023/11/26 09:01:17;;;;;;;;;;;;;;;22.40;21.67;95352.00;4958208;28;1366;-74
2023/11/26 09:03:43;;;;;;;;;;;;;;;22.47;21.38;95368.50;4936882;29;1206;-75
2023/11/26 09:06:08;;;;;;;;;;;;;;;22.34;21.66;95374.69;4939734;29;1502;-74
2023/11/26 09:08:34;;;;;;;;;;;;;;;22.36;21.38;95350.19;4934961;29;1988;-74
2023/11/26 09:10:59;;;;;;;;;;;;;;;22.49;21.61;95369.53;4921203;29;1404;-75
2023/11/26 09:13:28;;;;;;;;;;;;;;;22.49;21.64;95402.78;4891235;29;1472;-75
2023/11/26 09:15:55;;;;;;;;;;;;;;;22.59;21.24;95406.91;4922699;29;1289;-74
2023/11/26 09:18:21;;;;;;;;;;;;;;;22.62;21.47;95405.84;4925857;29;1404;-74
2023/11/26 09:20:47;;;;;;;;;;;;;;;22.78;21.17;95430.59;4938737;29;1489;-74
2023/11/26 09:23:13;;;;;;;;;;;;;;;22.60;20.95;95431.13;4942694;28;1415;-75
2023/11/26 09:25:39;;;;;;;;;;;;;;;22.50;21.22;95421.31;4944147;29;1627;-74
2023/11/26 09:28:05;;;;;;;;;;;;;;;22.29;21.53;95424.38;4944652;29;1981;-74
2023/11/26 09:30:31;;;;;;;;;;;;;;;21.42;22.48;95438.41;4970589;28;1658;-74
2023/11/26 09:32:56;;;;;;;;;;;;;;;20.72;23.52;95474.34;4993760;28;1738;-75
2023/11/26 09:35:22;;;;;;;;;;;;;;;20.71;23.39;95467.16;4997185;28;924;-74
2023/11/26 09:37:47;;;;;;;;;;;;;;;20.78;23.43;95472.38;4996873;28;1207;-74
2023/11/26 09:40:13;;;;;;;;;;;;;;;20.63;23.38;95470.94;5011822;28;1327;-74
2023/11/26 09:42:38;;;;;;;;;;;;;;;20.14;24.08;95498.88;5037335;28;942;-74
2023/11/26 09:45:04;;;;;;;;;;;;;;;20.24;23.83;95519.28;5020862;28;974;-74
2023/11/26 09:47:30;;;;;;;;;;;;;;;20.62;23.59;95543.59;5019425;28;1169;-74
2023/11/26 09:49:55;;;;;;;;;;;;;;;20.71;23.36;95554.75;5003031;28;1910;-74
2023/11/26 09:52:21;;;;;;;;;;;;;;;20.70;23.41;95578.63;5002897;28;779;-76
2023/11/26 09:54:49;;;;;;;;;;;;;;;20.96;22.98;95587.13;5036140;28;774;-74
2023/11/26 09:57:14;;;;;;;;;;;;;;;21.04;22.90;95601.59;5019785;28;759;-74
2023/11/26 09:59:40;;;;;;;;;;;;;;;20.87;23.13;95589.31;5036191;28;735;-75
2023/11/26 10:02:09;;;;;;;;;;;;;;;20.56;23.33;95607.75;5019595;28;1099;-75
2023/11/26 10:04:50;;;;;;;;;;;;;;;20.52;23.58;95613.63;4980459;28;1172;-74
2023/11/26 10:07:16;;;;;;;;;;;;;;;20.46;23.70;95631.72;4980336;28;773;-74
2023/11/26 10:09:42;;;;;;;;;;;;;;;20.70;23.42;95645.66;4995978;28;1911;-74
2023/11/26 10:12:07;;;;;;;;;;;;;;;20.61;23.43;95649.41;4975525;28;1113;-74
2023/11/26 10:14:33;;;;;;;;;;;;;;;20.73;23.38;95662.41;4996101;28;1370;-74
2023/11/26 10:17:09;;;;;;;;;;;;;;;20.81;23.51;95666.34;4995903;28;923;-74
2023/11/26 10:19:34;;;;;;;;;;;;;;;20.79;23.22;95670.97;4991686;28;1369;-75
2023/11/26 10:22:00;;;;;;;;;;;;;;;20.92;23.06;95685.50;4976640;28;1632;-74
2023/11/26 10:24:27;;;;;;;;;;;;;;;21.03;23.00;95690.50;4992844;28;931;-74
2023/11/26 10:26:54;;;;;;;;;;;;;;;20.94;23.27;95694.28;4976749;28;1228;-75
2023/11/26 10:29:23;;;;;;;;;;;;;;;20.97;23.21;95715.09;4992341;28;1910;-75
2023/11/26 10:31:57;;;;;;;;;;;;;;;20.83;23.38;95730.09;4992570;28;747;-75
2023/11/26 10:34:22;;;;;;;;;;;;;;;20.78;23.49;95732.38;4976403;28;865;-74
2023/11/26 10:36:48;;;;;;;;;;;;;;;20.90;23.09;95729.69;4996013;28;914;-74
2023/11/26 10:39:14;;;;;;;;;;;;;;;20.92;23.10;95744.06;4995860;28;739;-74
2023/11/26 10:41:40;;;;;;;;;;;;;;;21.02;22.93;95739.84;4995992;28;778;-75
2023/11/26 10:44:06;;;;;;;;;;;;;;;21.06;22.95;95726.28;4995624;28;853;-75
2023/11/26 10:46:35;;;;;;;;;;;;;;;20.95;23.19;95714.84;4995575;28;1223;-75
2023/11/26 10:49:14;;;;;;;;;;;;;;;20.95;23.04;95728.97;5006621;28;1914;-75
2023/11/26 10:51:41;;;;;;;;;;;;;;;20.51;23.38;95752.53;5019805;28;1155;-74
2023/11/26 10:54:10;;;;;;;;;;;;;;;21.01;23.43;95758.06;5170033;22;3797;-74
2023/11/26 10:56:39;;;;;;;;;;;;;;;21.37;22.94;95775.75;5019606;28;1201;-75
2023/11/26 10:59:08;;;;;;;;;;;;;;;21.14;23.25;95798.09;5052202;28;817;-74
2023/11/26 11:01:34;;;;;;;;;;;;;;;21.11;23.28;95787.00;5035973;28;763;-74
2023/11/26 11:04:00;;;;;;;;;;;;;;;21.03;23.60;95787.41;5035974;28;1191;-75
2023/11/26 11:06:25;;;;;;;;;;;;;;;21.19;23.13;95800.22;5052428;28;834;-75
2023/11/26 11:08:51;;;;;;;;;;;;;;;20.92;23.32;95803.44;5052182;28;1898;-75
2023/11/26 11:11:35;;;;;;;;;;;;;;;21.14;23.14;95815.06;5036000;28;1134;-74
2023/11/26 11:14:01;;;;;;;;;;;;;;;20.74;23.75;95816.56;5037197;28;718;-74
2023/11/26 11:16:27;;;;;;;;;;;;;;;21.00;23.46;95810.25;5035444;28;779;-74
2023/11/26 11:18:53;;;;;;;;;;;;;;;21.16;23.25;95821.00;5035355;28;771;-74
2023/11/26 11:21:18;;;;;;;;;;;;;;;21.19;23.37;95822.84;5035663;28;805;-74
2023/11/26 11:23:45;;;;;;;;;;;;;;;21.14;23.13;95826.38;5052164;28;833;-73
2023/11/26 11:26:11;;;;;;;;;;;;;;;20.98;23.40;95838.22;5052172;28;782;-74
2023/11/26 11:28:37;;;;;;;;;;;;;;;21.07;23.35;95860.72;5052417;28;1905;-74
2023/11/26 11:31:03;;;;;;;;;;;;;;;21.03;23.69;95865.78;5035665;28;1247;-74
2023/11/26 11:33:28;;;;;;;;;;;;;;;21.07;23.51;95869.19;5035528;28;1257;-74
2023/11/26 11:35:53;;;;;;;;;;;;;;;21.20;23.11;95871.69;5035515;28;1283;-74
2023/11/26 11:38:21;;;;;;;;;;;;;;;20.96;23.66;95880.34;5035389;28;1115;-74
2023/11/26 11:40:59;;;;;;;;;;;;;;;20.92;23.80;95888.25;5035062;28;1167;-74
2023/11/26 11:43:31;;;;;;;;;;;;;;;21.22;23.06;95895.38;5051876;28;861;-74
2023/11/26 11:45:56;;;;;;;;;;;;;;;21.04;23.59;95912.59;5035280;28;848;-74
2023/11/26 11:48:51;;;;;;;;;;;;;;;20.96;23.47;95911.44;5051802;28;1893;-74
2023/11/26 11:51:36;;;;;;;;;;;;;;;21.01;23.63;95922.06;5017543;28;1026;-74
2023/11/26 11:54:10;;;;;;;;;;;;;;;20.82;23.73;95924.34;5033866;28;1053;-74
2023/11/26 11:56:39;;;;;;;;;;;;;;;21.06;23.45;95927.03;5034034;28;1096;-73
2023/11/26 11:59:05;;;;;;;;;;;;;;;21.11;23.63;95923.50;5034177;28;846;-74
2023/11/26 12:01:33;;;;;;;;;;;;;;;20.94;23.79;95930.97;5017626;28;1260;-75
2023/11/26 12:04:02;;;;;;;;;;;;;;;20.81;24.04;95946.16;5017711;28;829;-74
2023/11/26 12:06:27;;;;;;;;;;;;;;;20.64;24.06;95947.94;5001297;28;1142;-74
2023/11/26 12:08:53;;;;;;;;;;;;;;;20.84;23.95;95941.59;5017218;28;1969;-74
2023/11/26 12:11:19;;;;;;;;;;;;;;;20.55;24.14;95940.34;5017658;28;1210;-74
2023/11/26 12:13:45;;;;;;;;;;;;;;;20.83;24.21;95964.69;5034080;28;1026;-74
2023/11/26 12:16:10;;;;;;;;;;;;;;;21.03;23.93;95978.88;5033856;28;930;-74
2023/11/26 12:18:36;;;;;;;;;;;;;;;21.03;23.81;95984.53;5017385;28;736;-74
2023/11/26 12:21:04;;;;;;;;;;;;;;;20.80;23.97;95986.22;5017351;28;1242;-74
2023/11/26 12:23:31;;;;;;;;;;;;;;;20.83;24.30;95999.41;5033667;28;900;-74
2023/11/26 12:25:58;;;;;;;;;;;;;;;20.84;24.03;96000.19;5034151;28;786;-74
2023/11/26 12:28:25;;;;;;;;;;;;;;;20.75;24.08;96007.47;5034643;28;1902;-74
2023/11/26 12:30:54;;;;;;;;;;;;;;;20.71;24.24;96017.41;5051872;28;743;-75
2023/11/26 12:33:20;;;;;;;;;;;;;;;20.81;24.24;96018.88;5018582;28;1114;-74
2023/11/26 12:35:46;;;;;;;;;;;;;;;21.02;23.78;96033.88;5033451;28;1058;-74
2023/11/26 12:38:11;;;;;;;;;;;;;;;20.78;24.19;96031.19;5017344;28;1202;-74
2023/11/26 12:40:37;;;;;;;;;;;;;;;20.93;24.25;96045.28;5017250;28;1201;-74
2023/11/26 12:43:03;;;;;;;;;;;;;;;20.74;24.32;96042.66;5017448;28;796;-74
2023/11/26 12:45:28;;;;;;;;;;;;;;;20.61;24.66;96044.97;4984818;28;1157;-74
2023/11/26 12:47:54;;;;;;;;;;;;;;;20.99;24.01;96061.09;5017084;28;1898;-74
2023/11/26 12:50:21;;;;;;;;;;;;;;;20.86;24.25;96062.66;5017388;28;806;-74
2023/11/26 12:52:47;;;;;;;;;;;;;;;20.88;24.18;96058.09;5020357;28;875;-74
2023/11/26 12:55:14;;;;;;;;;;;;;;;20.75;24.30;96069.66;5021366;28;1168;-74
2023/11/26 12:57:39;;;;;;;;;;;;;;;21.02;24.19;96067.81;5024282;28;1415;-74
2023/11/26 13:00:10;;;;;;;;;;;;;;;20.97;24.26;96083.41;5040724;28;742;-74
2023/11/26 13:02:39;;;;;;;;;;;;;;;21.26;23.93;96085.47;5040783;28;715;-74